Home > Products > Valid Products > TAF

000
FTPQ31 PGUM 290105 AAA
TAFGUM
TAF AMD
PGUM 290105Z 2901/3006 14011KT P6SM VCTS SCT015CB BKN040 BKN100
     FM290300 12008KT P6SM VCSH SCT018 BKN040 BKN100
     FM290800 11008KT P6SM VCSH FEW018 BKN120=



000
FTPQ31 PGUM 290105 AAA
TAFGUM
TAF AMD
PGUM 290105Z 2901/3006 14011KT P6SM VCTS SCT015CB BKN040 BKN100
     FM290300 12008KT P6SM VCSH SCT018 BKN040 BKN100
     FM290800 11008KT P6SM VCSH FEW018 BKN120=



000
FTPQ31 PGUM 290105 AAA
TAFGUM
TAF AMD
PGUM 290105Z 2901/3006 14011KT P6SM VCTS SCT015CB BKN040 BKN100
     FM290300 12008KT P6SM VCSH SCT018 BKN040 BKN100
     FM290800 11008KT P6SM VCSH FEW018 BKN120=



000
FTPQ31 PGUM 290105 AAA
TAFGUM
TAF AMD
PGUM 290105Z 2901/3006 14011KT P6SM VCTS SCT015CB BKN040 BKN100
     FM290300 12008KT P6SM VCSH SCT018 BKN040 BKN100
     FM290800 11008KT P6SM VCSH FEW018 BKN120=



000
FTPQ31 PGUM 282340
TAFGUM
TAF
PGUM 282340Z 2900/3006 16011KT P6SM VCSH SCT018 BKN040 BKN100
     FM290800 11008KT P6SM VCSH FEW018 BKN120=



000
FTPQ31 PGUM 282340
TAFGUM
TAF
PGUM 282340Z 2900/3006 16011KT P6SM VCSH SCT018 BKN040 BKN100
     FM290800 11008KT P6SM VCSH FEW018 BKN120=



000
FTPQ31 PGUM 281741
TAFGUM
TAF
PGUM 281741Z 2818/2924 13010KT P6SM -SHRA SCT016 BKN040 OVC080
      TEMPO 2818/2821 3SM +SHRA BKN014 OVC040
     FM282200 12012KT P6SM VCSH SCT018 BKN040 BKN100
     FM290800 11008KT P6SM VCSH FEW018 BKN120=



000
FTPQ31 PGUM 281741
TAFGUM
TAF
PGUM 281741Z 2818/2924 13010KT P6SM -SHRA SCT016 BKN040 OVC080
      TEMPO 2818/2821 3SM +SHRA BKN014 OVC040
     FM282200 12012KT P6SM VCSH SCT018 BKN040 BKN100
     FM290800 11008KT P6SM VCSH FEW018 BKN120=



000
FTPQ31 PGUM 281741
TAFGUM
TAF
PGUM 281741Z 2818/2924 13010KT P6SM -SHRA SCT016 BKN040 OVC080
      TEMPO 2818/2821 3SM +SHRA BKN014 OVC040
     FM282200 12012KT P6SM VCSH SCT018 BKN040 BKN100
     FM290800 11008KT P6SM VCSH FEW018 BKN120=



000
FTPQ31 PGUM 281741
TAFGUM
TAF
PGUM 281741Z 2818/2924 13010KT P6SM -SHRA SCT016 BKN040 OVC080
      TEMPO 2818/2821 3SM +SHRA BKN014 OVC040
     FM282200 12012KT P6SM VCSH SCT018 BKN040 BKN100
     FM290800 11008KT P6SM VCSH FEW018 BKN120=



000
FTPQ31 PGUM 281322 AAA
TAFGUM
TAF AMD
PGUM 281322Z 2813/2918 10011KT P6SM VCSH FEW016 SCT040 BKN100
      TEMPO 2813/2817 3SM +SHRA BKN014 OVC025
     FM290000 12014KT P6SM VCSH FEW018 SCT040 SCT100=



000
FTPQ31 PGUM 281322 AAA
TAFGUM
TAF AMD
PGUM 281322Z 2813/2918 10011KT P6SM VCSH FEW016 SCT040 BKN100
      TEMPO 2813/2817 3SM +SHRA BKN014 OVC025
     FM290000 12014KT P6SM VCSH FEW018 SCT040 SCT100=



000
FTPQ31 PGUM 281322 AAA
TAFGUM
TAF AMD
PGUM 281322Z 2813/2918 10011KT P6SM VCSH FEW016 SCT040 BKN100
      TEMPO 2813/2817 3SM +SHRA BKN014 OVC025
     FM290000 12014KT P6SM VCSH FEW018 SCT040 SCT100=



000
FTPQ31 PGUM 281120
TAFGUM
TAF
PGUM 281120Z 2812/2918 10011KT P6SM VCSH FEW016 SCT040 BKN100
      TEMPO 2812/2816 5SM SHRA SCT014 BKN025
     FM290000 12014KT P6SM VCSH FEW018 SCT040 SCT100=



000
FTPQ31 PGUM 281120
TAFGUM
TAF
PGUM 281120Z 2812/2918 10011KT P6SM VCSH FEW016 SCT040 BKN100
      TEMPO 2812/2816 5SM SHRA SCT014 BKN025
     FM290000 12014KT P6SM VCSH FEW018 SCT040 SCT100=



000
FTPQ31 PGUM 281120
TAFGUM
TAF
PGUM 281120Z 2812/2918 10011KT P6SM VCSH FEW016 SCT040 BKN100
      TEMPO 2812/2816 5SM SHRA SCT014 BKN025
     FM290000 12014KT P6SM VCSH FEW018 SCT040 SCT100=



000
FTPQ31 PGUM 281120
TAFGUM
TAF
PGUM 281120Z 2812/2918 10011KT P6SM VCSH FEW016 SCT040 BKN100
      TEMPO 2812/2816 5SM SHRA SCT014 BKN025
     FM290000 12014KT P6SM VCSH FEW018 SCT040 SCT100=



000
FTPQ31 PGUM 281042 AAK
TAFGUM
TAF AMD
PGUM 281042Z 2811/2912 10010KT P6SM VCSH FEW016 SCT040 SCT100
      TEMPO 2811/2815 5SM SHRA SCT014 BKN025=



000
FTPQ31 PGUM 281042 AAK
TAFGUM
TAF AMD
PGUM 281042Z 2811/2912 10010KT P6SM VCSH FEW016 SCT040 SCT100
      TEMPO 2811/2815 5SM SHRA SCT014 BKN025=



000
FTPQ31 PGUM 280520
TAFGUM
TAF
PGUM 280520Z 2806/2912 09010KT P6SM VCSH SCT015 SCT030 SCT090=



000
FTPQ31 PGUM 280520
TAFGUM
TAF
PGUM 280520Z 2806/2912 09010KT P6SM VCSH SCT015 SCT030 SCT090=



000
FTPQ31 PGUM 272324
TAFGUM
TAF
PGUM 272324Z 2800/2906 10013KT P6SM VCSH FEW018 BKN035
     FM280800 10007KT P6SM VCSH SCT015 SCT030 BKN120=



000
FTPQ31 PGUM 272324
TAFGUM
TAF
PGUM 272324Z 2800/2906 10013KT P6SM VCSH FEW018 BKN035
     FM280800 10007KT P6SM VCSH SCT015 SCT030 BKN120=



000
FTPQ31 PGUM 271721
TAFGUM
TAF
PGUM 271721Z 2718/2824 07008KT P6SM VCSH FEW018 SCT050 SCT100
      TEMPO 2718/2722 4SM SHRA SCT012 BKN025 OVC050
     FM272200 10008KT P6SM VCSH FEW018 SCT050 SCT100=



000
FTPQ31 PGUM 271721
TAFGUM
TAF
PGUM 271721Z 2718/2824 07008KT P6SM VCSH FEW018 SCT050 SCT100
      TEMPO 2718/2722 4SM SHRA SCT012 BKN025 OVC050
     FM272200 10008KT P6SM VCSH FEW018 SCT050 SCT100=



000
FTPQ31 PGUM 271721
TAFGUM
TAF
PGUM 271721Z 2718/2824 07008KT P6SM VCSH FEW018 SCT050 SCT100
      TEMPO 2718/2722 4SM SHRA SCT012 BKN025 OVC050
     FM272200 10008KT P6SM VCSH FEW018 SCT050 SCT100=



000
FTPQ31 PGUM 271120
TAFGUM
TAF
PGUM 271120Z 2712/2818 07008KT P6SM VCSH FEW018 SCT050 SCT100
     FM271600 10008KT P6SM VCSH FEW018 SCT050 SCT100=



000
FTPQ31 PGUM 271120
TAFGUM
TAF
PGUM 271120Z 2712/2818 07008KT P6SM VCSH FEW018 SCT050 SCT100
     FM271600 10008KT P6SM VCSH FEW018 SCT050 SCT100=



000
FTPQ31 PGUM 271120
TAFGUM
TAF
PGUM 271120Z 2712/2818 07008KT P6SM VCSH FEW018 SCT050 SCT100
     FM271600 10008KT P6SM VCSH FEW018 SCT050 SCT100=



000
FTPQ31 PGUM 271120
TAFGUM
TAF
PGUM 271120Z 2712/2818 07008KT P6SM VCSH FEW018 SCT050 SCT100
     FM271600 10008KT P6SM VCSH FEW018 SCT050 SCT100=



000
FTPQ31 PGUM 270521
TAFGUM
TAF
PGUM 270521Z 2706/2812 VRB06KT P6SM VCSH SCT020 SCT050=



000
FTPQ31 PGUM 270521
TAFGUM
TAF
PGUM 270521Z 2706/2812 VRB06KT P6SM VCSH SCT020 SCT050=



000
FTPQ31 PGUM 270131 AAA
TAFGUM
TAF AMD
PGUM 270131Z 2702/2806 01007KT P6SM VCSH SCT025
     FM271000 07004KT P6SM VCSH SCT020=



000
FTPQ31 PGUM 270131 AAA
TAFGUM
TAF AMD
PGUM 270131Z 2702/2806 01007KT P6SM VCSH SCT025
     FM271000 07004KT P6SM VCSH SCT020=



000
FTPQ31 PGUM 270131 AAA
TAFGUM
TAF AMD
PGUM 270131Z 2702/2806 01007KT P6SM VCSH SCT025
     FM271000 07004KT P6SM VCSH SCT020=



000
FTPQ31 PGUM 270131 AAA
TAFGUM
TAF AMD
PGUM 270131Z 2702/2806 01007KT P6SM VCSH SCT025
     FM271000 07004KT P6SM VCSH SCT020=



000
FTPQ31 PGUM 262300 RRA
TAFGUM
TAF
PGUM 262341Z 2700/2806 07010KT P6SM SCT020
     FM271000 07004KT P6SM VCSH SCT020=



000
FTPQ31 PGUM 262300 RRA
TAFGUM
TAF
PGUM 262341Z 2700/2806 07010KT P6SM SCT020
     FM271000 07004KT P6SM VCSH SCT020=



000
FTPQ31 PGUM 261700
TAFGUM
TAF
PGUM 261735Z 2618/2724 VRB04KT P6SM SCT020
     FM270000 07010KT P6SM SCT020
     FM271000 07005KT P6SM VCSH SCT020=



000
FTPQ31 PGUM 261700
TAFGUM
TAF
PGUM 261735Z 2618/2724 VRB04KT P6SM SCT020
     FM270000 07010KT P6SM SCT020
     FM271000 07005KT P6SM VCSH SCT020=



000
FTPQ31 PGUM 261126
TAFGUM
TAF
PGUM 261126Z 2612/2718 09008KT P6SM SCT020=



000
FTPQ31 PGUM 261126
TAFGUM
TAF
PGUM 261126Z 2612/2718 09008KT P6SM SCT020=



000
FTPQ31 PGUM 261126
TAFGUM
TAF
PGUM 261126Z 2612/2718 09008KT P6SM SCT020=



000
FTPQ31 PGUM 261126
TAFGUM
TAF
PGUM 261126Z 2612/2718 09008KT P6SM SCT020=



000
FTPQ31 PGUM 260523
TAFGUM
TAF
PGUM 260523Z 2606/2712 09008KT P6SM SCT020=



000
FTPQ31 PGUM 260523
TAFGUM
TAF
PGUM 260523Z 2606/2712 09008KT P6SM SCT020=



000
FTPQ31 PGUM 260523
TAFGUM
TAF
PGUM 260523Z 2606/2712 09008KT P6SM SCT020=



000
FTPQ31 PGUM 260523
TAFGUM
TAF
PGUM 260523Z 2606/2712 09008KT P6SM SCT020=



    US Dept of Commerce
    National Oceanic and Atmospheric Administration
    National Weather Service
    1325 East West Highway
    Silver Spring, MD 20910
    Page Author: NWS Internet Services Team
Disclaimer
Information Quality
Credits
Glossary
Privacy Policy
Freedom of Information Act (FOIA)
About Us
Career Opportunities